createdAt,value
2023-05-16T00:02:03.410Z,11.40
2023-05-16T00:04:33.069Z,11.53
2023-05-16T00:07:01.370Z,11.20
2023-05-16T00:09:29.510Z,11.80
2023-05-16T00:11:57.914Z,11.47
2023-05-16T00:14:26.697Z,12.93
2023-05-16T00:16:57.650Z,11.27
2023-05-16T00:19:26.574Z,13.40
2023-05-16T00:21:54.677Z,11.43
2023-05-16T00:24:23.008Z,11.00
2023-05-16T00:26:51.081Z,12.40
2023-05-16T00:29:19.204Z,12.40
2023-05-16T00:31:47.361Z,12.90
2023-05-16T00:34:17.030Z,12.00
2023-05-16T00:36:46.459Z,12.07
2023-05-16T00:39:14.610Z,12.20
2023-05-16T00:41:42.941Z,13.07
2023-05-16T00:44:11.102Z,12.37
2023-05-16T00:46:39.255Z,12.13
2023-05-16T00:49:07.881Z,12.17
2023-05-16T00:51:39.697Z,12.27
2023-05-16T00:54:08.496Z,12.40
2023-05-16T00:56:36.895Z,12.07
2023-05-16T00:59:05.502Z,14.57
2023-05-16T01:01:36.464Z,14.20
2023-05-16T01:04:05.576Z,13.50
2023-05-16T01:06:34.750Z,13.00
2023-05-16T01:09:04.944Z,12.60
2023-05-16T01:11:41.763Z,13.30
2023-05-16T01:14:27.601Z,12.87
2023-05-16T01:17:08.700Z,12.90
2023-05-16T01:20:06.257Z,12.60
2023-05-16T01:22:53.567Z,12.30
2023-05-16T01:25:40.370Z,12.20
2023-05-16T01:28:11.666Z,12.13
2023-05-16T01:30:42.294Z,12.67
2023-05-16T01:33:11.221Z,13.70
2023-05-16T01:35:48.381Z,12.43
2023-05-16T01:38:26.931Z,12.97
2023-05-16T01:41:05.237Z,12.57
2023-05-16T01:43:45.282Z,13.17
2023-05-16T01:46:17.518Z,14.23
2023-05-16T01:48:55.091Z,12.40
2023-05-16T01:51:30.576Z,11.73
2023-05-16T01:54:07.561Z,11.93
2023-05-16T01:56:38.323Z,12.73
2023-05-16T01:59:09.796Z,11.47
2023-05-16T02:01:38.101Z,12.30
2023-05-16T02:04:06.634Z,14.40
2023-05-16T02:06:34.876Z,13.57
2023-05-16T02:09:02.997Z,11.37
2023-05-16T02:11:31.105Z,11.63
2023-05-16T02:13:59.465Z,14.20
2023-05-16T02:16:31.439Z,12.10
2023-05-16T02:18:59.743Z,13.50
2023-05-16T02:21:27.897Z,13.03
2023-05-16T02:23:56.016Z,13.67
2023-05-16T02:26:24.092Z,15.33
2023-05-16T02:28:52.224Z,15.70
2023-05-16T02:31:29.876Z,16.63
2023-05-16T02:33:58.759Z,17.60
2023-05-16T02:36:27.265Z,16.80
2023-05-16T02:38:56.106Z,17.87
2023-05-16T02:41:24.249Z,20.07
2023-05-16T02:43:52.497Z,23.83
2023-05-16T02:46:30.603Z,27.50
2023-05-16T02:48:59.307Z,29.10
2023-05-16T02:51:29.380Z,26.10
2023-05-16T02:53:59.640Z,25.93
2023-05-16T02:56:28.105Z,28.43
2023-05-16T02:58:56.800Z,29.93
2023-05-16T03:01:25.514Z,28.53
2023-05-16T03:03:55.527Z,29.43
2023-05-16T03:06:23.735Z,27.60
2023-05-16T03:08:51.923Z,26.80
2023-05-16T03:11:21.743Z,29.93
2023-05-16T03:13:50.158Z,26.93
2023-05-16T03:16:18.388Z,27.57
2023-05-16T03:18:46.631Z,25.70
2023-05-16T03:21:16.213Z,27.20
2023-05-16T03:23:45.255Z,26.40
2023-05-16T03:26:13.375Z,28.47
2023-05-16T03:28:41.543Z,25.07
2023-05-16T03:31:09.740Z,26.13
2023-05-16T03:33:37.872Z,28.50
2023-05-16T03:36:06.498Z,25.90
2023-05-16T03:38:36.179Z,24.67
2023-05-16T03:41:04.561Z,26.77
2023-05-16T03:43:33.723Z,28.07
2023-05-16T03:46:02.988Z,25.13
2023-05-16T03:48:31.411Z,25.17
2023-05-16T03:50:59.487Z,25.57
2023-05-16T03:53:27.742Z,25.97
2023-05-16T03:55:57.213Z,25.83
2023-05-16T03:58:25.506Z,23.13
2023-05-16T04:00:53.626Z,25.60
2023-05-16T04:03:28.141Z,23.43
2023-05-16T04:05:56.656Z,25.10
2023-05-16T04:08:24.788Z,23.53
2023-05-16T04:10:53.012Z,21.83
2023-05-16T04:13:22.651Z,21.73
2023-05-16T04:15:50.840Z,22.77
2023-05-16T04:18:20.000Z,20.63
2023-05-16T04:20:48.576Z,22.60
2023-05-16T04:23:16.684Z,20.37
2023-05-16T04:25:44.748Z,20.50
2023-05-16T04:28:13.450Z,20.23
2023-05-16T04:30:43.019Z,21.67
2023-05-16T04:33:11.197Z,20.53
2023-05-16T04:35:39.812Z,20.67
2023-05-16T04:38:08.571Z,18.87
2023-05-16T04:40:36.718Z,19.97
2023-05-16T04:43:04.841Z,19.53
2023-05-16T04:45:33.865Z,19.63
2023-05-16T04:48:05.183Z,20.47
2023-05-16T04:50:33.415Z,21.03
2023-05-16T04:53:01.801Z,21.47
2023-05-16T04:55:30.163Z,22.47
2023-05-16T04:57:58.611Z,22.47
2023-05-16T05:00:27.216Z,19.53
2023-05-16T05:02:55.614Z,19.47
2023-05-16T05:05:25.262Z,21.07
2023-05-16T05:07:54.156Z,18.60
2023-05-16T05:10:22.289Z,16.20
2023-05-16T05:12:50.740Z,16.17
2023-05-16T05:15:19.275Z,16.17
2023-05-16T05:17:47.550Z,14.90
2023-05-16T05:20:16.019Z,14.33
2023-05-16T05:22:45.504Z,14.33
2023-05-16T05:25:13.930Z,13.53
2023-05-16T05:27:42.163Z,12.60
2023-05-16T05:30:11.432Z,13.33
2023-05-16T05:32:39.668Z,12.03
2023-05-16T05:35:08.779Z,11.63
2023-05-16T05:37:36.934Z,11.97
2023-05-16T05:40:08.757Z,10.17
2023-05-16T05:42:36.913Z,11.33
2023-05-16T05:45:07.697Z,9.63
2023-05-16T05:47:35.993Z,9.67
2023-05-16T05:50:06.138Z,9.13
2023-05-16T05:52:34.348Z,11.43
2023-05-16T05:55:02.522Z,8.33
2023-05-16T05:57:32.092Z,7.63
2023-05-16T06:00:00.193Z,10.37
2023-05-16T06:02:29.213Z,8.53
2023-05-16T06:04:57.513Z,6.67
2023-05-16T06:07:25.965Z,7.10
2023-05-16T06:09:54.119Z,7.40
2023-05-16T06:12:22.224Z,6.27
2023-05-16T06:14:51.762Z,7.37
2023-05-16T06:17:19.942Z,9.60
2023-05-16T06:19:48.116Z,7.93
2023-05-16T06:22:16.275Z,6.47
2023-05-16T06:24:44.585Z,6.50
2023-05-16T06:27:12.682Z,6.10
2023-05-16T06:29:40.917Z,6.50
2023-05-16T06:32:13.099Z,7.47
2023-05-16T06:34:41.551Z,6.67
2023-05-16T06:37:09.631Z,4.63
2023-05-16T06:39:38.237Z,5.77
2023-05-16T06:42:06.996Z,4.80
2023-05-16T06:44:35.166Z,5.13
2023-05-16T06:47:03.582Z,6.50
2023-05-16T06:49:33.193Z,6.63
2023-05-16T06:52:01.368Z,4.90
2023-05-16T06:54:29.614Z,8.03
2023-05-16T06:56:57.773Z,5.80
2023-05-16T06:59:27.512Z,6.27
2023-05-16T07:01:56.457Z,6.13
2023-05-16T07:04:24.673Z,4.73
2023-05-16T07:06:54.491Z,6.37
2023-05-16T07:09:22.941Z,5.43
2023-05-16T07:11:51.220Z,6.57
2023-05-16T07:14:19.452Z,5.40
2023-05-16T07:16:47.909Z,6.33
2023-05-16T07:19:16.357Z,4.60
2023-05-16T07:21:44.686Z,5.97
2023-05-16T07:24:14.204Z,6.17
2023-05-16T07:26:42.336Z,4.10
2023-05-16T07:29:10.505Z,4.50
2023-05-16T07:31:38.769Z,5.90
2023-05-16T07:34:07.465Z,4.70
2023-05-16T07:36:37.082Z,5.90
2023-05-16T07:39:05.668Z,4.33
2023-05-16T07:41:35.240Z,7.20
2023-05-16T07:44:03.456Z,4.63
2023-05-16T07:46:31.686Z,5.87
2023-05-16T07:48:59.875Z,5.13
2023-05-16T07:51:29.095Z,4.88
2023-05-16T07:53:57.292Z,5.63
2023-05-16T07:56:25.651Z,4.93
2023-05-16T07:58:55.642Z,5.47
2023-05-16T08:01:23.892Z,4.83
2023-05-16T08:03:53.577Z,4.93
2023-05-16T08:06:21.882Z,4.30
2023-05-16T08:08:50.043Z,5.38
2023-05-16T08:11:19.237Z,5.15
2023-05-16T08:13:47.480Z,4.03
2023-05-16T08:16:17.351Z,4.22
2023-05-16T08:18:45.884Z,3.58
2023-05-16T08:21:16.605Z,2.80
2023-05-16T08:23:45.041Z,4.03
2023-05-16T08:26:13.312Z,3.25
2023-05-16T08:28:41.512Z,5.85
2023-05-16T08:31:09.681Z,3.65
2023-05-16T08:33:39.292Z,3.25
2023-05-16T08:36:08.426Z,2.90
2023-05-16T08:38:37.117Z,3.28
2023-05-16T08:41:06.331Z,3.35
2023-05-16T08:43:35.840Z,2.65
2023-05-16T08:46:04.089Z,3.30
2023-05-16T08:48:34.617Z,3.95
2023-05-16T08:51:08.656Z,4.25
2023-05-16T08:53:46.667Z,3.67
2023-05-16T08:56:17.419Z,2.60
2023-05-16T08:58:46.287Z,2.40
2023-05-16T09:01:15.762Z,2.58
2023-05-16T09:03:45.186Z,2.83
2023-05-16T09:06:14.832Z,4.40
2023-05-16T09:08:43.621Z,4.07
2023-05-16T09:11:11.836Z,2.85
2023-05-16T09:13:40.928Z,2.70
2023-05-16T09:16:14.645Z,2.60
2023-05-16T09:18:46.183Z,2.60
2023-05-16T09:21:16.644Z,2.65
2023-05-16T09:23:46.504Z,2.75
2023-05-16T09:26:14.908Z,3.88
2023-05-16T09:28:44.407Z,5.10
2023-05-16T09:31:24.941Z,2.70
2023-05-16T09:33:53.235Z,4.65
2023-05-16T09:36:22.837Z,2.55
2023-05-16T09:38:53.592Z,3.65
2023-05-16T09:41:23.514Z,5.70
2023-05-16T09:43:54.105Z,5.40
2023-05-16T09:46:28.425Z,2.72
2023-05-16T09:48:57.251Z,2.72
2023-05-16T09:51:28.035Z,4.00
2023-05-16T09:53:56.278Z,2.83
2023-05-16T09:56:24.475Z,3.17
2023-05-16T09:58:54.076Z,2.60
2023-05-16T10:01:22.415Z,3.70
2023-05-16T10:03:53.124Z,5.15
2023-05-16T10:06:22.819Z,4.60
2023-05-16T10:08:52.812Z,3.67
2023-05-16T10:11:21.689Z,3.87
2023-05-16T10:13:53.635Z,2.97
2023-05-16T10:16:24.582Z,4.53
2023-05-16T10:18:56.165Z,5.05
2023-05-16T10:21:27.139Z,2.88
2023-05-16T10:24:04.510Z,2.30
2023-05-16T10:26:34.074Z,3.50
2023-05-16T10:29:03.924Z,2.33
2023-05-16T10:31:33.056Z,3.00
2023-05-16T10:34:01.953Z,3.92
2023-05-16T10:36:31.324Z,3.65
2023-05-16T10:39:01.922Z,6.38
2023-05-16T10:41:30.476Z,3.70
2023-05-16T10:44:00.005Z,4.40
2023-05-16T10:46:30.260Z,2.70
2023-05-16T10:48:58.978Z,4.00
2023-05-16T10:51:39.186Z,4.95
2023-05-16T10:54:13.824Z,5.45
2023-05-16T10:56:43.229Z,6.80
2023-05-16T10:59:26.105Z,3.40
2023-05-16T11:01:56.075Z,4.50
2023-05-16T11:04:24.497Z,6.80
2023-05-16T11:06:59.412Z,3.30
2023-05-16T11:09:29.066Z,3.55
2023-05-16T11:12:01.009Z,3.13
2023-05-16T11:14:37.494Z,5.22
2023-05-16T11:17:12.059Z,3.42
2023-05-16T11:19:47.113Z,5.28
2023-05-16T11:22:27.322Z,4.85
2023-05-16T11:25:00.841Z,5.15
2023-05-16T11:27:31.388Z,8.02
2023-05-16T11:30:15.520Z,5.18
2023-05-16T11:32:46.517Z,4.45
2023-05-16T11:35:18.065Z,5.28
2023-05-16T11:37:48.554Z,6.85
2023-05-16T11:40:18.608Z,5.85
2023-05-16T11:42:49.316Z,6.05
2023-05-16T11:45:19.696Z,6.57
2023-05-16T11:47:50.159Z,5.82
2023-05-16T11:50:22.054Z,5.32
2023-05-16T11:52:54.338Z,4.35
2023-05-16T11:55:40.982Z,4.55
2023-05-16T11:58:12.173Z,6.63
2023-05-16T12:00:50.417Z,6.43
2023-05-16T12:03:21.343Z,5.90
2023-05-16T12:05:54.263Z,5.00
2023-05-16T12:08:24.610Z,3.25
2023-05-16T12:10:55.186Z,4.68
2023-05-16T12:13:26.145Z,6.63
2023-05-16T12:15:55.142Z,4.95
2023-05-16T12:18:25.353Z,6.40
2023-05-16T12:20:53.895Z,5.97
2023-05-16T12:23:22.367Z,4.20
2023-05-16T12:25:50.824Z,7.93
2023-05-16T12:28:20.416Z,5.65
2023-05-16T12:30:48.764Z,5.25
2023-05-16T12:33:18.025Z,5.55
2023-05-16T12:35:47.903Z,6.60
2023-05-16T12:38:18.084Z,4.07
2023-05-16T12:40:47.485Z,5.47
2023-05-16T12:43:16.579Z,5.43
2023-05-16T12:45:52.724Z,5.30
2023-05-16T12:48:21.618Z,3.40
2023-05-16T12:50:50.861Z,5.38
2023-05-16T12:53:20.464Z,6.32
2023-05-16T12:55:49.454Z,4.50
2023-05-16T12:58:19.773Z,3.60
2023-05-16T13:00:49.639Z,5.03
2023-05-16T13:03:17.915Z,6.07
2023-05-16T13:05:46.316Z,6.50
2023-05-16T13:08:14.451Z,7.97
2023-05-16T13:10:42.800Z,8.85
2023-05-16T13:13:13.667Z,2.72
2023-05-16T13:15:45.544Z,5.13
2023-05-16T13:18:15.353Z,6.10
2023-05-16T13:20:43.620Z,4.85
2023-05-16T13:23:11.753Z,3.80
2023-05-16T13:25:41.071Z,4.70
2023-05-16T13:28:09.241Z,6.22
2023-05-16T13:30:37.505Z,4.68
2023-05-16T13:33:05.904Z,4.40
2023-05-16T13:35:35.519Z,9.27
2023-05-16T13:38:03.841Z,4.65
2023-05-16T13:40:32.839Z,4.47
2023-05-16T13:43:01.632Z,2.28
2023-05-16T13:45:31.305Z,4.15
2023-05-16T13:47:59.470Z,6.10
2023-05-16T13:50:33.292Z,5.70
2023-05-16T13:53:04.217Z,4.75
2023-05-16T13:55:32.395Z,4.55
2023-05-16T13:58:01.107Z,5.25
2023-05-16T14:00:43.471Z,5.13
2023-05-16T14:03:13.928Z,4.43
2023-05-16T14:05:42.433Z,4.43
2023-05-16T14:08:11.970Z,4.70
2023-05-16T14:10:40.127Z,3.50
2023-05-16T14:13:08.306Z,3.85
2023-05-16T14:15:36.786Z,8.10
2023-05-16T14:18:05.506Z,3.05
2023-05-16T14:20:33.888Z,3.63
2023-05-16T14:23:02.075Z,3.25
2023-05-16T14:25:31.788Z,4.53
2023-05-16T14:28:00.183Z,4.07
2023-05-16T14:30:28.738Z,4.38
2023-05-16T14:32:57.130Z,5.18
2023-05-16T14:35:25.719Z,3.10
2023-05-16T14:37:56.336Z,2.58
2023-05-16T14:40:24.760Z,4.45
2023-05-16T14:42:54.390Z,5.13
2023-05-16T14:45:22.581Z,2.60
2023-05-16T14:47:50.809Z,4.72
2023-05-16T14:50:19.123Z,3.95
2023-05-16T14:52:47.417Z,5.82
2023-05-16T14:55:15.693Z,3.83
2023-05-16T14:57:45.506Z,3.30
2023-05-16T15:00:18.096Z,3.25
2023-05-16T15:02:46.343Z,3.65
2023-05-16T15:05:14.788Z,4.18
2023-05-16T15:07:43.914Z,7.22
2023-05-16T15:10:12.764Z,2.95
2023-05-16T15:12:43.236Z,3.97
2023-05-16T15:15:14.192Z,4.32
2023-05-16T15:17:45.949Z,4.22
2023-05-16T15:20:15.742Z,3.97
2023-05-16T15:22:44.013Z,4.57
2023-05-16T15:25:12.913Z,2.65
2023-05-16T15:27:41.084Z,6.20
2023-05-16T15:30:10.748Z,4.45
2023-05-16T15:32:39.434Z,3.83
2023-05-16T15:35:10.000Z,4.88
2023-05-16T15:37:38.841Z,2.40
2023-05-16T15:40:10.497Z,2.60
2023-05-16T15:42:38.746Z,4.93
2023-05-16T15:45:08.783Z,4.70
2023-05-16T15:47:37.000Z,3.55
2023-05-16T15:50:06.093Z,4.05
2023-05-16T15:52:36.817Z,3.42
2023-05-16T15:55:05.495Z,4.93
2023-05-16T15:57:33.690Z,4.00
2023-05-16T16:00:01.872Z,4.07
2023-05-16T16:02:30.072Z,2.05
2023-05-16T16:04:58.269Z,2.80
2023-05-16T16:07:26.439Z,3.55
2023-05-16T16:09:56.031Z,4.28
2023-05-16T16:12:24.245Z,3.65
2023-05-16T16:14:52.681Z,3.58
2023-05-16T16:17:21.082Z,3.88
2023-05-16T16:19:49.268Z,2.42
2023-05-16T16:22:17.772Z,5.22
2023-05-16T16:24:46.138Z,4.60
2023-05-16T16:27:16.442Z,3.50
2023-05-16T16:29:45.199Z,3.17
2023-05-16T16:32:13.324Z,4.50
2023-05-16T16:34:41.488Z,2.40
2023-05-16T16:37:11.547Z,3.72
2023-05-16T16:39:40.101Z,2.50
2023-05-16T16:42:08.987Z,3.47
2023-05-16T16:44:38.509Z,2.83
2023-05-16T16:47:06.992Z,2.83
2023-05-16T16:49:35.155Z,2.45
2023-05-16T16:52:03.546Z,3.03
2023-05-16T16:54:31.715Z,2.50
2023-05-16T16:56:59.814Z,2.30
2023-05-16T16:59:27.992Z,2.28
2023-05-16T17:01:57.537Z,3.60
2023-05-16T17:04:25.768Z,1.35
2023-05-16T17:06:53.850Z,1.85
2023-05-16T17:09:22.053Z,2.97
2023-05-16T17:11:50.126Z,3.22
2023-05-16T17:14:19.056Z,5.68
2023-05-16T17:16:47.200Z,2.72
2023-05-16T17:19:16.814Z,3.38
2023-05-16T17:21:45.252Z,1.20
2023-05-16T17:24:13.464Z,3.60
2023-05-16T17:26:41.683Z,3.38
2023-05-16T17:29:10.014Z,2.20
2023-05-16T17:31:38.215Z,2.72
2023-05-16T17:34:06.390Z,4.20
2023-05-16T17:36:36.523Z,3.53
2023-05-16T17:39:07.847Z,2.83
2023-05-16T17:41:36.198Z,2.83
2023-05-16T17:44:06.697Z,2.00
2023-05-16T17:46:35.432Z,2.05
2023-05-16T17:49:04.344Z,4.18
2023-05-16T17:51:48.416Z,2.60
2023-05-16T17:54:17.562Z,1.52
2023-05-16T17:56:45.834Z,2.03
2023-05-16T17:59:14.963Z,2.17
2023-05-16T18:01:43.727Z,1.83
2023-05-16T18:04:15.451Z,1.65
2023-05-16T18:06:44.053Z,2.38
2023-05-16T18:09:14.943Z,2.65
2023-05-16T18:11:43.448Z,2.45
2023-05-16T18:14:12.830Z,2.63
2023-05-16T18:16:41.282Z,3.60
2023-05-16T18:19:09.667Z,4.45
2023-05-16T18:24:37.505Z,4.50
2023-05-16T18:27:06.141Z,3.13
2023-05-16T18:29:34.388Z,2.45
2023-05-16T18:32:03.098Z,2.00
2023-05-16T18:34:31.519Z,3.58
2023-05-16T18:36:59.693Z,2.87
2023-05-16T18:39:27.996Z,5.73
2023-05-16T18:41:57.957Z,2.77
2023-05-16T18:44:26.293Z,2.85
2023-05-16T18:46:54.741Z,2.17
2023-05-16T18:49:23.138Z,3.37
2023-05-16T18:51:51.858Z,2.57
2023-05-16T18:54:20.371Z,3.77
2023-05-16T18:56:49.340Z,1.80
2023-05-16T18:59:18.790Z,2.07
2023-05-16T19:01:47.210Z,3.20
2023-05-16T19:04:15.512Z,2.50
2023-05-16T19:06:43.671Z,1.70
2023-05-16T19:09:11.779Z,3.27
2023-05-16T19:11:39.953Z,2.10
2023-05-16T19:14:08.577Z,2.53
2023-05-16T19:16:38.091Z,2.13
2023-05-16T19:19:07.834Z,2.23
2023-05-16T19:21:36.529Z,1.53
2023-05-16T19:24:04.886Z,1.27
2023-05-16T19:26:33.137Z,2.97
2023-05-16T19:29:01.241Z,2.43
2023-05-16T19:31:29.387Z,2.43
2023-05-16T19:33:59.008Z,4.07
2023-05-16T19:36:27.168Z,2.93
2023-05-16T19:38:55.232Z,2.00
2023-05-16T19:41:24.514Z,1.63
2023-05-16T19:43:52.880Z,2.47
2023-05-16T19:46:20.954Z,2.10
2023-05-16T19:48:49.244Z,3.17
2023-05-16T19:51:26.666Z,2.67
2023-05-16T19:54:08.248Z,2.43
2023-05-16T19:56:36.359Z,3.73
2023-05-16T19:59:04.399Z,1.73
2023-05-16T20:01:32.839Z,2.60
2023-05-16T20:04:01.435Z,3.90
2023-05-16T20:06:33.435Z,2.23
2023-05-16T20:09:01.522Z,2.10
2023-05-16T20:11:29.720Z,3.40
2023-05-16T20:13:59.922Z,1.37
2023-05-16T20:16:28.242Z,2.30
2023-05-16T20:18:56.441Z,5.53
2023-05-16T20:21:24.834Z,3.67
2023-05-16T20:23:54.312Z,2.07
2023-05-16T20:26:22.569Z,2.60
2023-05-16T20:28:50.775Z,2.77
2023-05-16T20:31:19.078Z,3.30
2023-05-16T20:33:47.657Z,2.20
2023-05-16T20:36:15.864Z,2.10
2023-05-16T20:38:44.100Z,3.33
2023-05-16T20:41:13.732Z,1.30
2023-05-16T20:43:41.876Z,3.87
2023-05-16T20:46:10.109Z,4.57
2023-05-16T20:48:38.284Z,2.67
2023-05-16T20:51:06.540Z,2.50
2023-05-16T20:53:34.846Z,5.07
2023-05-16T20:56:03.027Z,1.80
2023-05-16T20:58:33.090Z,2.23
2023-05-16T21:01:02.180Z,2.27
2023-05-16T21:03:30.326Z,1.73
2023-05-16T21:05:58.550Z,2.50
2023-05-16T21:08:26.877Z,3.17
2023-05-16T21:10:55.097Z,4.50
2023-05-16T21:13:24.276Z,2.63
2023-05-16T21:15:53.814Z,3.27
2023-05-16T21:18:22.093Z,1.17
2023-05-16T21:20:51.164Z,4.57
2023-05-16T21:23:19.395Z,3.10
2023-05-16T21:25:47.571Z,1.87
2023-05-16T21:28:15.750Z,2.33
2023-05-16T21:30:43.939Z,3.07
2023-05-16T21:33:13.631Z,2.20
2023-05-16T21:35:42.001Z,2.03
2023-05-16T21:38:10.336Z,4.67
2023-05-16T21:40:38.626Z,2.63
2023-05-16T21:43:06.801Z,2.40
2023-05-16T21:45:34.938Z,1.60
2023-05-16T21:48:03.169Z,1.43
2023-05-16T21:50:33.234Z,3.53
2023-05-16T21:53:01.471Z,6.10
2023-05-16T21:55:29.785Z,1.63
2023-05-16T21:57:58.010Z,5.80
2023-05-16T22:00:26.147Z,4.10
2023-05-16T22:02:54.380Z,3.10
2023-05-16T22:05:24.645Z,2.33
2023-05-16T22:07:54.172Z,4.53
2023-05-16T22:10:23.151Z,2.57
2023-05-16T22:12:51.325Z,4.20
2023-05-16T22:15:19.475Z,2.10
2023-05-16T22:17:48.165Z,3.23
2023-05-16T22:20:17.069Z,2.50
2023-05-16T22:22:45.659Z,1.53
2023-05-16T23:31:29.909Z,1.70
2023-05-16T23:33:58.115Z,6.00
2023-05-16T23:36:26.409Z,4.00
2023-05-16T23:38:54.585Z,6.57
2023-05-16T23:41:22.738Z,3.10
2023-05-16T23:43:50.962Z,4.10
2023-05-16T23:46:19.144Z,3.40
2023-05-16T23:48:48.805Z,4.13
2023-05-16T23:51:17.075Z,3.27
2023-05-16T23:53:45.215Z,3.63
2023-05-16T23:56:13.307Z,3.27
2023-05-16T23:58:41.484Z,6.80
